sensor_id;sensor_type;location;lat;lon;timestamp;temperature;humidity
72762;SHT30;60886;55.034;73.150;2023-08-21T00:01:37;9.18;84.63
72762;SHT30;60886;55.034;73.150;2023-08-21T00:04:38;9.11;83.70
72762;SHT30;60886;55.034;73.150;2023-08-21T00:07:39;9.07;83.44
72762;SHT30;60886;55.034;73.150;2023-08-21T00:10:41;9.05;84.00
72762;SHT30;60886;55.034;73.150;2023-08-21T00:13:42;9.07;84.06
72762;SHT30;60886;55.034;73.150;2023-08-21T00:16:45;9.05;84.47
72762;SHT30;60886;55.034;73.150;2023-08-21T00:19:47;9.10;84.80
72762;SHT30;60886;55.034;73.150;2023-08-21T00:22:48;9.15;84.75
72762;SHT30;60886;55.034;73.150;2023-08-21T00:25:49;9.19;85.11
72762;SHT30;60886;55.034;73.150;2023-08-21T00:28:51;9.24;84.82
72762;SHT30;60886;55.034;73.150;2023-08-21T00:31:52;9.27;84.90
72762;SHT30;60886;55.034;73.150;2023-08-21T00:34:56;9.32;84.92
72762;SHT30;60886;55.034;73.150;2023-08-21T00:37:58;9.38;84.81
72762;SHT30;60886;55.034;73.150;2023-08-21T00:40:59;9.45;84.88
72762;SHT30;60886;55.034;73.150;2023-08-21T00:44:00;9.49;84.75
72762;SHT30;60886;55.034;73.150;2023-08-21T00:47:02;9.52;85.19
72762;SHT30;60886;55.034;73.150;2023-08-21T00:50:06;9.55;85.16
72762;SHT30;60886;55.034;73.150;2023-08-21T00:53:08;9.65;85.80
72762;SHT30;60886;55.034;73.150;2023-08-21T00:56:09;9.68;84.91
72762;SHT30;60886;55.034;73.150;2023-08-21T00:59:13;9.65;84.64
72762;SHT30;60886;55.034;73.150;2023-08-21T01:02:14;9.62;84.53
72762;SHT30;60886;55.034;73.150;2023-08-21T01:05:18;9.66;84.73
72762;SHT30;60886;55.034;73.150;2023-08-21T01:08:41;9.76;85.28
72762;SHT30;60886;55.034;73.150;2023-08-21T01:12:35;9.90;86.18
72762;SHT30;60886;55.034;73.150;2023-08-21T01:15:39;10.02;86.76
72762;SHT30;60886;55.034;73.150;2023-08-21T01:18:40;10.21;87.54
72762;SHT30;60886;55.034;73.150;2023-08-21T01:21:43;10.41;87.81
72762;SHT30;60886;55.034;73.150;2023-08-21T01:24:44;10.58;87.71
72762;SHT30;60886;55.034;73.150;2023-08-21T01:27:48;10.78;87.32
72762;SHT30;60886;55.034;73.150;2023-08-21T01:30:57;10.98;87.03
72762;SHT30;60886;55.034;73.150;2023-08-21T01:34:04;11.15;86.39
72762;SHT30;60886;55.034;73.150;2023-08-21T01:37:09;11.29;85.96
72762;SHT30;60886;55.034;73.150;2023-08-21T01:40:11;11.43;85.51
72762;SHT30;60886;55.034;73.150;2023-08-21T01:43:13;11.59;85.33
72762;SHT30;60886;55.034;73.150;2023-08-21T01:46:15;11.77;84.95
72762;SHT30;60886;55.034;73.150;2023-08-21T01:49:16;11.93;83.96
72762;SHT30;60886;55.034;73.150;2023-08-21T01:52:26;12.11;83.60
72762;SHT30;60886;55.034;73.150;2023-08-21T01:55:28;12.31;83.49
72762;SHT30;60886;55.034;73.150;2023-08-21T01:58:29;12.71;82.72
72762;SHT30;60886;55.034;73.150;2023-08-21T02:01:30;13.63;79.69
72762;SHT30;60886;55.034;73.150;2023-08-21T02:04:32;14.22;77.99
72762;SHT30;60886;55.034;73.150;2023-08-21T02:07:34;14.18;77.21
72762;SHT30;60886;55.034;73.150;2023-08-21T02:10:35;14.18;77.90
72762;SHT30;60886;55.034;73.150;2023-08-21T02:13:37;14.26;77.45
72762;SHT30;60886;55.034;73.150;2023-08-21T02:16:38;14.38;77.91
72762;SHT30;60886;55.034;73.150;2023-08-21T02:19:40;14.55;77.87
72762;SHT30;60886;55.034;73.150;2023-08-21T02:22:42;14.66;77.00
72762;SHT30;60886;55.034;73.150;2023-08-21T02:25:43;15.02;76.01
72762;SHT30;60886;55.034;73.150;2023-08-21T02:28:45;15.39;76.23
72762;SHT30;60886;55.034;73.150;2023-08-21T02:31:47;15.82;73.45
72762;SHT30;60886;55.034;73.150;2023-08-21T02:34:48;16.13;71.46
72762;SHT30;60886;55.034;73.150;2023-08-21T02:37:56;16.51;70.48
72762;SHT30;60886;55.034;73.150;2023-08-21T02:40:57;16.57;70.29
72762;SHT30;60886;55.034;73.150;2023-08-21T02:43:59;16.81;71.27
72762;SHT30;60886;55.034;73.150;2023-08-21T02:47:00;17.14;71.04
72762;SHT30;60886;55.034;73.150;2023-08-21T02:50:03;17.24;67.54
72762;SHT30;60886;55.034;73.150;2023-08-21T02:53:04;17.40;67.32
72762;SHT30;60886;55.034;73.150;2023-08-21T02:56:06;17.42;67.02
72762;SHT30;60886;55.034;73.150;2023-08-21T02:59:08;17.64;66.21
72762;SHT30;60886;55.034;73.150;2023-08-21T03:02:09;17.89;68.47
72762;SHT30;60886;55.034;73.150;2023-08-21T03:05:11;17.96;64.44
72762;SHT30;60886;55.034;73.150;2023-08-21T03:08:14;17.93;64.28
72762;SHT30;60886;55.034;73.150;2023-08-21T03:11:15;17.93;64.86
72762;SHT30;60886;55.034;73.150;2023-08-21T03:14:17;17.93;64.75
72762;SHT30;60886;55.034;73.150;2023-08-21T03:17:26;17.91;64.29
72762;SHT30;60886;55.034;73.150;2023-08-21T03:20:27;17.99;62.98
72762;SHT30;60886;55.034;73.150;2023-08-21T03:23:29;18.12;64.65
72762;SHT30;60886;55.034;73.150;2023-08-21T03:26:30;18.15;62.54
72762;SHT30;60886;55.034;73.150;2023-08-21T03:29:33;18.10;63.75
72762;SHT30;60886;55.034;73.150;2023-08-21T03:32:34;18.22;64.93
72762;SHT30;60886;55.034;73.150;2023-08-21T03:35:36;18.32;62.85
72762;SHT30;60886;55.034;73.150;2023-08-21T03:38:39;18.28;61.76
72762;SHT30;60886;55.034;73.150;2023-08-21T03:41:41;18.43;64.38
72762;SHT30;60886;55.034;73.150;2023-08-21T03:44:43;18.50;62.59
72762;SHT30;60886;55.034;73.150;2023-08-21T03:47:44;18.66;63.41
72762;SHT30;60886;55.034;73.150;2023-08-21T03:50:51;18.61;62.07
72762;SHT30;60886;55.034;73.150;2023-08-21T03:53:53;18.80;60.51
72762;SHT30;60886;55.034;73.150;2023-08-21T03:56:54;18.83;60.43
72762;SHT30;60886;55.034;73.150;2023-08-21T03:59:57;18.81;60.83
72762;SHT30;60886;55.034;73.150;2023-08-21T04:02:59;18.98;60.85
72762;SHT30;60886;55.034;73.150;2023-08-21T04:06:02;19.03;59.76
72762;SHT30;60886;55.034;73.150;2023-08-21T04:09:05;19.11;60.84
72762;SHT30;60886;55.034;73.150;2023-08-21T04:12:07;18.97;58.11
72762;SHT30;60886;55.034;73.150;2023-08-21T04:15:09;18.97;60.00
72762;SHT30;60886;55.034;73.150;2023-08-21T04:18:11;18.96;58.66
72762;SHT30;60886;55.034;73.150;2023-08-21T04:21:12;18.84;58.79
72762;SHT30;60886;55.034;73.150;2023-08-21T04:24:13;18.80;60.13
72762;SHT30;60886;55.034;73.150;2023-08-21T04:27:15;18.78;60.39
72762;SHT30;60886;55.034;73.150;2023-08-21T04:30:16;18.81;59.66
72762;SHT30;60886;55.034;73.150;2023-08-21T04:33:17;18.93;59.47
72762;SHT30;60886;55.034;73.150;2023-08-21T04:36:19;18.98;56.80
72762;SHT30;60886;55.034;73.150;2023-08-21T04:39:23;19.03;58.05
72762;SHT30;60886;55.034;73.150;2023-08-21T04:42:26;19.32;59.33
72762;SHT30;60886;55.034;73.150;2023-08-21T04:45:28;19.63;57.01
72762;SHT30;60886;55.034;73.150;2023-08-21T04:48:29;19.66;57.85
72762;SHT30;60886;55.034;73.150;2023-08-21T04:51:30;19.79;57.46
72762;SHT30;60886;55.034;73.150;2023-08-21T04:54:34;19.71;56.12
72762;SHT30;60886;55.034;73.150;2023-08-21T04:57:36;19.86;57.21
72762;SHT30;60886;55.034;73.150;2023-08-21T05:00:40;20.02;56.03
72762;SHT30;60886;55.034;73.150;2023-08-21T05:03:42;20.22;54.91
72762;SHT30;60886;55.034;73.150;2023-08-21T05:06:53;20.29;54.02
72762;SHT30;60886;55.034;73.150;2023-08-21T05:09:58;20.41;55.77
72762;SHT30;60886;55.034;73.150;2023-08-21T05:13:00;20.36;53.76
72762;SHT30;60886;55.034;73.150;2023-08-21T05:16:02;20.48;53.51
72762;SHT30;60886;55.034;73.150;2023-08-21T05:19:08;20.54;54.01
72762;SHT30;60886;55.034;73.150;2023-08-21T05:22:09;20.44;54.68
72762;SHT30;60886;55.034;73.150;2023-08-21T05:25:11;20.00;54.47
72762;SHT30;60886;55.034;73.150;2023-08-21T05:28:13;20.24;55.27
72762;SHT30;60886;55.034;73.150;2023-08-21T05:31:14;20.40;51.93
72762;SHT30;60886;55.034;73.150;2023-08-21T05:34:26;20.29;52.87
72762;SHT30;60886;55.034;73.150;2023-08-21T05:37:29;20.51;52.75
72762;SHT30;60886;55.034;73.150;2023-08-21T05:40:31;20.41;51.71
72762;SHT30;60886;55.034;73.150;2023-08-21T05:43:33;20.48;51.66
72762;SHT30;60886;55.034;73.150;2023-08-21T05:46:36;20.45;53.50
72762;SHT30;60886;55.034;73.150;2023-08-21T05:49:39;20.44;53.09
72762;SHT30;60886;55.034;73.150;2023-08-21T05:52:40;20.27;51.03
72762;SHT30;60886;55.034;73.150;2023-08-21T05:55:43;20.29;51.92
72762;SHT30;60886;55.034;73.150;2023-08-21T05:58:45;20.26;51.13
72762;SHT30;60886;55.034;73.150;2023-08-21T06:01:46;20.26;50.94
72762;SHT30;60886;55.034;73.150;2023-08-21T06:04:48;20.23;51.71
72762;SHT30;60886;55.034;73.150;2023-08-21T06:07:50;20.23;51.98
72762;SHT30;60886;55.034;73.150;2023-08-21T06:10:53;20.27;52.51
72762;SHT30;60886;55.034;73.150;2023-08-21T06:13:54;20.16;53.25
72762;SHT30;60886;55.034;73.150;2023-08-21T06:16:59;20.12;51.96
72762;SHT30;60886;55.034;73.150;2023-08-21T06:20:01;20.00;52.24
72762;SHT30;60886;55.034;73.150;2023-08-21T06:23:05;19.94;51.29
72762;SHT30;60886;55.034;73.150;2023-08-21T06:26:06;19.83;53.36
72762;SHT30;60886;55.034;73.150;2023-08-21T06:29:08;19.92;52.19
72762;SHT30;60886;55.034;73.150;2023-08-21T06:32:09;20.09;51.88
72762;SHT30;60886;55.034;73.150;2023-08-21T06:35:11;20.13;50.00
72762;SHT30;60886;55.034;73.150;2023-08-21T06:38:12;20.02;51.52
72762;SHT30;60886;55.034;73.150;2023-08-21T06:41:14;19.96;52.53
72762;SHT30;60886;55.034;73.150;2023-08-21T06:44:17;20.02;52.48
72762;SHT30;60886;55.034;73.150;2023-08-21T06:47:26;20.16;50.68
72762;SHT30;60886;55.034;73.150;2023-08-21T06:50:27;20.26;51.42
72762;SHT30;60886;55.034;73.150;2023-08-21T06:53:28;20.14;51.27
72762;SHT30;60886;55.034;73.150;2023-08-21T06:56:30;20.17;52.38
72762;SHT30;60886;55.034;73.150;2023-08-21T06:59:31;20.16;50.33
72762;SHT30;60886;55.034;73.150;2023-08-21T07:02:36;20.14;50.58
72762;SHT30;60886;55.034;73.150;2023-08-21T07:05:38;20.03;50.44
72762;SHT30;60886;55.034;73.150;2023-08-21T07:08:39;20.10;50.81
72762;SHT30;60886;55.034;73.150;2023-08-21T07:11:41;20.05;50.04
72762;SHT30;60886;55.034;73.150;2023-08-21T07:14:42;20.06;50.44
72762;SHT30;60886;55.034;73.150;2023-08-21T07:17:44;19.99;50.00
72762;SHT30;60886;55.034;73.150;2023-08-21T07:20:46;19.87;50.49
72762;SHT30;60886;55.034;73.150;2023-08-21T07:23:47;19.89;51.71
72762;SHT30;60886;55.034;73.150;2023-08-21T07:26:48;19.92;51.36
72762;SHT30;60886;55.034;73.150;2023-08-21T07:29:49;20.06;49.93
72762;SHT30;60886;55.034;73.150;2023-08-21T07:32:53;20.02;48.96
72762;SHT30;60886;55.034;73.150;2023-08-21T07:35:59;20.00;48.04
72762;SHT30;60886;55.034;73.150;2023-08-21T07:39:01;20.08;50.75
72762;SHT30;60886;55.034;73.150;2023-08-21T07:42:03;20.09;49.77
72762;SHT30;60886;55.034;73.150;2023-08-21T07:45:05;20.09;49.08
72762;SHT30;60886;55.034;73.150;2023-08-21T07:48:07;20.23;50.76
72762;SHT30;60886;55.034;73.150;2023-08-21T07:51:09;20.36;50.61
72762;SHT30;60886;55.034;73.150;2023-08-21T07:54:10;20.32;49.93
72762;SHT30;60886;55.034;73.150;2023-08-21T07:57:12;20.32;48.45
72762;SHT30;60886;55.034;73.150;2023-08-21T08:00:14;20.41;48.87
72762;SHT30;60886;55.034;73.150;2023-08-21T08:03:15;20.51;48.51
72762;SHT30;60886;55.034;73.150;2023-08-21T08:06:17;20.84;49.05
72762;SHT30;60886;55.034;73.150;2023-08-21T08:09:19;21.15;49.27
72762;SHT30;60886;55.034;73.150;2023-08-21T08:12:26;21.32;47.25
72762;SHT30;60886;55.034;73.150;2023-08-21T08:15:28;21.67;47.27
72762;SHT30;60886;55.034;73.150;2023-08-21T08:18:29;21.88;46.45
72762;SHT30;60886;55.034;73.150;2023-08-21T08:21:30;21.90;46.11
72762;SHT30;60886;55.034;73.150;2023-08-21T08:24:32;21.86;45.62
72762;SHT30;60886;55.034;73.150;2023-08-21T08:27:33;21.75;46.20
72762;SHT30;60886;55.034;73.150;2023-08-21T08:30:34;21.79;47.82
72762;SHT30;60886;55.034;73.150;2023-08-21T08:33:36;21.90;48.62
72762;SHT30;60886;55.034;73.150;2023-08-21T08:36:38;21.92;47.34
72762;SHT30;60886;55.034;73.150;2023-08-21T08:39:39;21.92;47.37
72762;SHT30;60886;55.034;73.150;2023-08-21T08:42:40;22.00;46.00
72762;SHT30;60886;55.034;73.150;2023-08-21T08:45:44;21.94;46.39
72762;SHT30;60886;55.034;73.150;2023-08-21T08:48:48;21.94;45.94
72762;SHT30;60886;55.034;73.150;2023-08-21T08:51:50;22.01;45.98
72762;SHT30;60886;55.034;73.150;2023-08-21T08:54:55;22.14;49.52
72762;SHT30;60886;55.034;73.150;2023-08-21T08:57:58;22.34;47.95
72762;SHT30;60886;55.034;73.150;2023-08-21T09:01:00;22.34;48.22
72762;SHT30;60886;55.034;73.150;2023-08-21T09:04:03;22.25;47.25
72762;SHT30;60886;55.034;73.150;2023-08-21T09:07:09;22.20;46.64
72762;SHT30;60886;55.034;73.150;2023-08-21T09:10:15;22.18;48.36
72762;SHT30;60886;55.034;73.150;2023-08-21T09:13:18;22.10;47.83
72762;SHT30;60886;55.034;73.150;2023-08-21T09:16:20;22.11;47.07
72762;SHT30;60886;55.034;73.150;2023-08-21T09:19:21;21.97;47.31
72762;SHT30;60886;55.034;73.150;2023-08-21T09:22:26;22.01;47.94
72762;SHT30;60886;55.034;73.150;2023-08-21T09:25:27;21.94;48.85
72762;SHT30;60886;55.034;73.150;2023-08-21T09:28:29;21.93;48.37
72762;SHT30;60886;55.034;73.150;2023-08-21T09:31:32;21.93;48.54
72762;SHT30;60886;55.034;73.150;2023-08-21T09:34:35;21.96;48.59
72762;SHT30;60886;55.034;73.150;2023-08-21T09:37:40;21.94;48.70
72762;SHT30;60886;55.034;73.150;2023-08-21T09:40:43;21.92;49.65
72762;SHT30;60886;55.034;73.150;2023-08-21T09:43:45;21.83;49.53
72762;SHT30;60886;55.034;73.150;2023-08-21T09:46:50;21.75;48.55
72762;SHT30;60886;55.034;73.150;2023-08-21T09:49:52;21.76;48.17
72762;SHT30;60886;55.034;73.150;2023-08-21T09:52:54;21.78;49.54
72762;SHT30;60886;55.034;73.150;2023-08-21T09:55:57;21.80;48.91
72762;SHT30;60886;55.034;73.150;2023-08-21T09:59:04;21.85;49.47
72762;SHT30;60886;55.034;73.150;2023-08-21T10:02:06;21.80;49.47
72762;SHT30;60886;55.034;73.150;2023-08-21T10:05:10;21.85;49.55
72762;SHT30;60886;55.034;73.150;2023-08-21T10:08:12;21.78;47.46
72762;SHT30;60886;55.034;73.150;2023-08-21T10:11:18;21.76;48.78
72762;SHT30;60886;55.034;73.150;2023-08-21T10:14:22;21.67;48.21
72762;SHT30;60886;55.034;73.150;2023-08-21T10:17:26;21.66;48.39
72762;SHT30;60886;55.034;73.150;2023-08-21T10:20:29;21.66;48.69
72762;SHT30;60886;55.034;73.150;2023-08-21T10:23:31;21.63;48.83
72762;SHT30;60886;55.034;73.150;2023-08-21T10:26:38;21.55;47.99
72762;SHT30;60886;55.034;73.150;2023-08-21T10:29:40;21.53;48.86
72762;SHT30;60886;55.034;73.150;2023-08-21T10:32:50;21.58;48.87
72762;SHT30;60886;55.034;73.150;2023-08-21T10:35:51;21.59;50.57
72762;SHT30;60886;55.034;73.150;2023-08-21T10:38:59;21.56;50.00
72762;SHT30;60886;55.034;73.150;2023-08-21T10:42:07;21.53;49.31
72762;SHT30;60886;55.034;73.150;2023-08-21T10:45:12;21.56;48.35
72762;SHT30;60886;55.034;73.150;2023-08-21T10:48:13;21.59;49.71
72762;SHT30;60886;55.034;73.150;2023-08-21T10:51:16;21.60;48.48
72762;SHT30;60886;55.034;73.150;2023-08-21T10:54:18;21.63;48.73
72762;SHT30;60886;55.034;73.150;2023-08-21T10:57:30;21.67;47.70
72762;SHT30;60886;55.034;73.150;2023-08-21T11:00:31;21.72;47.86
72762;SHT30;60886;55.034;73.150;2023-08-21T11:03:39;21.76;48.38
72762;SHT30;60886;55.034;73.150;2023-08-21T11:06:40;21.79;47.45
72762;SHT30;60886;55.034;73.150;2023-08-21T11:09:42;21.78;47.55
72762;SHT30;60886;55.034;73.150;2023-08-21T11:12:54;21.76;46.66
72762;SHT30;60886;55.034;73.150;2023-08-21T11:16:09;21.76;46.81
72762;SHT30;60886;55.034;73.150;2023-08-21T11:19:11;21.78;47.18
72762;SHT30;60886;55.034;73.150;2023-08-21T11:22:12;21.75;46.04
72762;SHT30;60886;55.034;73.150;2023-08-21T11:25:15;21.72;49.06
72762;SHT30;60886;55.034;73.150;2023-08-21T11:28:17;21.67;48.10
72762;SHT30;60886;55.034;73.150;2023-08-21T11:31:19;21.72;48.58
72762;SHT30;60886;55.034;73.150;2023-08-21T11:34:21;21.66;48.25
72762;SHT30;60886;55.034;73.150;2023-08-21T11:37:26;21.63;48.76
72762;SHT30;60886;55.034;73.150;2023-08-21T11:40:28;21.66;48.49
72762;SHT30;60886;55.034;73.150;2023-08-21T11:43:37;21.65;47.68
72762;SHT30;60886;55.034;73.150;2023-08-21T11:46:39;21.63;48.55
72762;SHT30;60886;55.034;73.150;2023-08-21T11:49:41;21.60;51.22
72762;SHT30;60886;55.034;73.150;2023-08-21T11:52:44;21.56;51.06
72762;SHT30;60886;55.034;73.150;2023-08-21T11:55:47;21.59;49.92
72762;SHT30;60886;55.034;73.150;2023-08-21T11:58:48;21.56;49.84
72762;SHT30;60886;55.034;73.150;2023-08-21T12:01:51;21.56;50.20
72762;SHT30;60886;55.034;73.150;2023-08-21T12:05:03;21.48;48.79
72762;SHT30;60886;55.034;73.150;2023-08-21T12:08:06;21.50;49.79
72762;SHT30;60886;55.034;73.150;2023-08-21T12:11:07;21.46;48.36
72762;SHT30;60886;55.034;73.150;2023-08-21T12:14:15;21.43;48.23
72762;SHT30;60886;55.034;73.150;2023-08-21T12:17:25;21.45;48.51
72762;SHT30;60886;55.034;73.150;2023-08-21T12:20:27;21.43;48.51
72762;SHT30;60886;55.034;73.150;2023-08-21T12:23:28;21.43;49.20
72762;SHT30;60886;55.034;73.150;2023-08-21T12:26:30;21.41;48.22
72762;SHT30;60886;55.034;73.150;2023-08-21T12:29:31;21.31;48.52
72762;SHT30;60886;55.034;73.150;2023-08-21T12:32:32;21.31;49.55
72762;SHT30;60886;55.034;73.150;2023-08-21T12:35:34;21.27;49.41
72762;SHT30;60886;55.034;73.150;2023-08-21T12:38:35;21.17;48.16
72762;SHT30;60886;55.034;73.150;2023-08-21T12:41:37;21.21;48.03
72762;SHT30;60886;55.034;73.150;2023-08-21T12:44:39;21.27;48.87
72762;SHT30;60886;55.034;73.150;2023-08-21T12:47:41;21.25;49.34
72762;SHT30;60886;55.034;73.150;2023-08-21T12:50:43;21.22;49.25
72762;SHT30;60886;55.034;73.150;2023-08-21T12:53:51;21.19;49.36
72762;SHT30;60886;55.034;73.150;2023-08-21T12:56:52;21.14;50.46
72762;SHT30;60886;55.034;73.150;2023-08-21T12:59:55;21.07;50.31
72762;SHT30;60886;55.034;73.150;2023-08-21T13:02:57;21.02;50.27
72762;SHT30;60886;55.034;73.150;2023-08-21T13:05:59;20.97;50.49
72762;SHT30;60886;55.034;73.150;2023-08-21T13:09:01;20.95;50.91
72762;SHT30;60886;55.034;73.150;2023-08-21T13:12:05;20.91;49.74
72762;SHT30;60886;55.034;73.150;2023-08-21T13:15:06;20.95;49.41
72762;SHT30;60886;55.034;73.150;2023-08-21T13:18:08;20.95;50.16
72762;SHT30;60886;55.034;73.150;2023-08-21T13:21:12;20.97;49.89
72762;SHT30;60886;55.034;73.150;2023-08-21T13:24:14;20.98;49.65
72762;SHT30;60886;55.034;73.150;2023-08-21T13:27:15;20.94;49.85
72762;SHT30;60886;55.034;73.150;2023-08-21T13:30:17;20.87;49.69
72762;SHT30;60886;55.034;73.150;2023-08-21T13:33:19;20.85;50.12
72762;SHT30;60886;55.034;73.150;2023-08-21T13:36:20;20.78;50.08
72762;SHT30;60886;55.034;73.150;2023-08-21T13:39:22;20.74;50.46
72762;SHT30;60886;55.034;73.150;2023-08-21T13:42:26;20.70;50.27
72762;SHT30;60886;55.034;73.150;2023-08-21T13:45:31;20.61;50.76
72762;SHT30;60886;55.034;73.150;2023-08-21T13:48:33;20.51;51.19
72762;SHT30;60886;55.034;73.150;2023-08-21T13:51:34;20.39;52.29
72762;SHT30;60886;55.034;73.150;2023-08-21T13:54:36;20.32;51.79
72762;SHT30;60886;55.034;73.150;2023-08-21T13:57:37;20.23;52.37
72762;SHT30;60886;55.034;73.150;2023-08-21T14:00:39;20.13;52.75
72762;SHT30;60886;55.034;73.150;2023-08-21T14:03:41;20.06;52.73
72762;SHT30;60886;55.034;73.150;2023-08-21T14:06:44;19.96;53.62
72762;SHT30;60886;55.034;73.150;2023-08-21T14:09:45;19.86;54.34
72762;SHT30;60886;55.034;73.150;2023-08-21T14:12:47;19.75;54.81
72762;SHT30;60886;55.034;73.150;2023-08-21T14:15:48;19.66;55.89
72762;SHT30;60886;55.034;73.150;2023-08-21T14:18:50;19.52;56.20
72762;SHT30;60886;55.034;73.150;2023-08-21T14:21:51;19.44;56.87
72762;SHT30;60886;55.034;73.150;2023-08-21T14:24:53;19.34;56.77
72762;SHT30;60886;55.034;73.150;2023-08-21T14:27:54;19.21;57.52
72762;SHT30;60886;55.034;73.150;2023-08-21T14:30:56;19.14;57.73
72762;SHT30;60886;55.034;73.150;2023-08-21T14:33:57;19.06;58.11
72762;SHT30;60886;55.034;73.150;2023-08-21T14:36:59;18.94;58.03
72762;SHT30;60886;55.034;73.150;2023-08-21T14:40:00;18.86;58.43
72762;SHT30;60886;55.034;73.150;2023-08-21T14:43:01;18.83;58.59
72762;SHT30;60886;55.034;73.150;2023-08-21T14:46:03;18.70;58.83
72762;SHT30;60886;55.034;73.150;2023-08-21T14:49:05;18.64;59.25
72762;SHT30;60886;55.034;73.150;2023-08-21T14:52:06;18.54;59.30
72762;SHT30;60886;55.034;73.150;2023-08-21T14:55:08;18.49;59.13
72762;SHT30;60886;55.034;73.150;2023-08-21T14:58:09;18.42;59.27
72762;SHT30;60886;55.034;73.150;2023-08-21T15:01:12;18.36;58.90
72762;SHT30;60886;55.034;73.150;2023-08-21T15:04:13;18.30;58.89
72762;SHT30;60886;55.034;73.150;2023-08-21T15:07:26;18.26;58.49
72762;SHT30;60886;55.034;73.150;2023-08-21T15:10:28;18.22;58.48
72762;SHT30;60886;55.034;73.150;2023-08-21T15:13:29;18.19;58.17
72762;SHT30;60886;55.034;73.150;2023-08-21T15:16:31;18.15;58.55
72762;SHT30;60886;55.034;73.150;2023-08-21T15:19:32;18.10;58.43
72762;SHT30;60886;55.034;73.150;2023-08-21T15:22:33;18.03;58.51
72762;SHT30;60886;55.034;73.150;2023-08-21T15:25:35;17.96;58.96
72762;SHT30;60886;55.034;73.150;2023-08-21T15:28:37;17.91;59.03
72762;SHT30;60886;55.034;73.150;2023-08-21T15:31:39;17.85;59.21
72762;SHT30;60886;55.034;73.150;2023-08-21T15:34:40;17.82;59.37
72762;SHT30;60886;55.034;73.150;2023-08-21T15:37:42;17.75;59.91
72762;SHT30;60886;55.034;73.150;2023-08-21T15:40:43;17.68;60.36
72762;SHT30;60886;55.034;73.150;2023-08-21T15:43:44;17.64;60.06
72762;SHT30;60886;55.034;73.150;2023-08-21T15:46:46;17.62;60.08
72762;SHT30;60886;55.034;73.150;2023-08-21T15:49:47;17.60;59.49
72762;SHT30;60886;55.034;73.150;2023-08-21T15:52:49;17.60;59.57
72762;SHT30;60886;55.034;73.150;2023-08-21T15:55:50;17.54;59.16
72762;SHT30;60886;55.034;73.150;2023-08-21T15:58:53;17.52;58.99
72762;SHT30;60886;55.034;73.150;2023-08-21T16:01:55;17.52;58.97
72762;SHT30;60886;55.034;73.150;2023-08-21T16:04:56;17.47;58.92
72762;SHT30;60886;55.034;73.150;2023-08-21T16:07:57;17.50;58.77
72762;SHT30;60886;55.034;73.150;2023-08-21T16:10:59;17.50;58.61
72762;SHT30;60886;55.034;73.150;2023-08-21T16:14:01;17.52;58.07
72762;SHT30;60886;55.034;73.150;2023-08-21T16:17:05;17.55;57.83
72762;SHT30;60886;55.034;73.150;2023-08-21T16:20:08;17.57;58.37
72762;SHT30;60886;55.034;73.150;2023-08-21T16:23:10;17.54;58.15
72762;SHT30;60886;55.034;73.150;2023-08-21T16:26:11;17.48;58.45
72762;SHT30;60886;55.034;73.150;2023-08-21T16:29:12;17.48;58.34
72762;SHT30;60886;55.034;73.150;2023-08-21T16:32:25;17.40;58.50
72762;SHT30;60886;55.034;73.150;2023-08-21T16:35:27;17.35;58.69
72762;SHT30;60886;55.034;73.150;2023-08-21T16:38:29;17.34;58.74
72762;SHT30;60886;55.034;73.150;2023-08-21T16:41:30;17.35;58.34
72762;SHT30;60886;55.034;73.150;2023-08-21T16:44:32;17.35;58.40
72762;SHT30;60886;55.034;73.150;2023-08-21T16:47:33;17.35;58.21
72762;SHT30;60886;55.034;73.150;2023-08-21T16:50:34;17.31;58.34
72762;SHT30;60886;55.034;73.150;2023-08-21T16:53:36;17.32;58.39
72762;SHT30;60886;55.034;73.150;2023-08-21T16:56:37;17.30;58.74
72762;SHT30;60886;55.034;73.150;2023-08-21T16:59:38;17.26;58.48
72762;SHT30;60886;55.034;73.150;2023-08-21T17:02:40;17.23;58.47
72762;SHT30;60886;55.034;73.150;2023-08-21T17:05:42;17.23;58.87
72762;SHT30;60886;55.034;73.150;2023-08-21T17:08:43;17.11;58.87
72762;SHT30;60886;55.034;73.150;2023-08-21T17:11:44;17.10;59.26
72762;SHT30;60886;55.034;73.150;2023-08-21T17:14:46;17.04;59.15
72762;SHT30;60886;55.034;73.150;2023-08-21T17:17:47;17.02;59.49
72762;SHT30;60886;55.034;73.150;2023-08-21T17:20:48;16.96;59.40
72762;SHT30;60886;55.034;73.150;2023-08-21T17:23:50;16.93;59.46
72762;SHT30;60886;55.034;73.150;2023-08-21T17:26:51;16.87;59.64
72762;SHT30;60886;55.034;73.150;2023-08-21T17:29:53;16.88;59.84
72762;SHT30;60886;55.034;73.150;2023-08-21T17:32:54;16.81;59.94
72762;SHT30;60886;55.034;73.150;2023-08-21T17:35:56;16.81;59.89
72762;SHT30;60886;55.034;73.150;2023-08-21T17:38:58;16.75;60.27
72762;SHT30;60886;55.034;73.150;2023-08-21T17:41:59;16.69;60.34
72762;SHT30;60886;55.034;73.150;2023-08-21T17:45:01;16.65;60.48
72762;SHT30;60886;55.034;73.150;2023-08-21T17:48:05;16.59;60.98
72762;SHT30;60886;55.034;73.150;2023-08-21T17:51:06;16.57;60.90
72762;SHT30;60886;55.034;73.150;2023-08-21T17:54:08;16.59;60.93
72762;SHT30;60886;55.034;73.150;2023-08-21T17:57:09;16.59;60.84
72762;SHT30;60886;55.034;73.150;2023-08-21T18:00:11;16.56;61.03
72762;SHT30;60886;55.034;73.150;2023-08-21T18:03:12;16.52;61.15
72762;SHT30;60886;55.034;73.150;2023-08-21T18:06:15;16.51;61.39
72762;SHT30;60886;55.034;73.150;2023-08-21T18:09:16;16.48;61.61
72762;SHT30;60886;55.034;73.150;2023-08-21T18:12:25;16.41;62.07
72762;SHT30;60886;55.034;73.150;2023-08-21T18:15:27;16.36;62.09
72762;SHT30;60886;55.034;73.150;2023-08-21T18:18:28;16.29;62.25
72762;SHT30;60886;55.034;73.150;2023-08-21T18:21:31;16.26;62.53
72762;SHT30;60886;55.034;73.150;2023-08-21T18:24:32;16.19;62.84
72762;SHT30;60886;55.034;73.150;2023-08-21T18:27:34;16.15;62.96
72762;SHT30;60886;55.034;73.150;2023-08-21T18:30:35;16.08;63.38
72762;SHT30;60886;55.034;73.150;2023-08-21T18:33:39;16.04;63.42
72762;SHT30;60886;55.034;73.150;2023-08-21T18:36:41;16.02;63.54
72762;SHT30;60886;55.034;73.150;2023-08-21T18:39:42;16.01;63.93
72762;SHT30;60886;55.034;73.150;2023-08-21T18:42:43;15.95;63.75
72762;SHT30;60886;55.034;73.150;2023-08-21T18:45:45;15.98;63.68
72762;SHT30;60886;55.034;73.150;2023-08-21T18:48:58;16.02;63.62
72762;SHT30;60886;55.034;73.150;2023-08-21T18:52:03;16.00;63.53
72762;SHT30;60886;55.034;73.150;2023-08-21T18:55:05;16.02;63.62
72762;SHT30;60886;55.034;73.150;2023-08-21T18:58:07;16.09;63.40